KDCU

Pryor Field Regional Airport

Decatur, Alabama, USA
METAR KDCU 240153Z AUTO 00000KT 10SM CLR 24/22 A3007 RMK AO2 SLP177 T02390217
Observed Flight Rules
May-24 @ 01:53 UTC (30 minutes ago) Visual Flight Rules
Visibility Clouds
10 miles
  • Clear skies
Temperatures Readings
Current 24°C / 75°F
Dewpoint 22°C / 72°F
Humidity 89%
Altimeter 30.07" Hg
Pressure 1017.7 hPa
Elevation 176
METAR KDCU 240153Z AUTO 00000KT 10SM CLR 24/22 A3007 RMK AO2 SLP177 T02390217
Observed Flight Rules
May-24 @ 01:53 UTC
(30 minutes ago)
VFR
Clouds
  • Clear skies
Temperature Dewpoint
24°C / 75°F 22°C / 72°F
Humidity Altimeter Pressure
89% 30.07" Hg 1017.7 hPa